sensor_id;sensor_type;location;lat;lon;timestamp;P1;durP1;ratioP1;P2;durP2;ratioP2
15356;SDS011;7778;48.792;9.260;2024-03-07T00:00:25;24.17;;;12.10;;
15356;SDS011;7778;48.792;9.260;2024-03-07T00:03:12;33.60;;;14.48;;
15356;SDS011;7778;48.792;9.260;2024-03-07T00:05:58;28.90;;;13.75;;
15356;SDS011;7778;48.792;9.260;2024-03-07T00:08:44;25.33;;;13.48;;
15356;SDS011;7778;48.792;9.260;2024-03-07T00:11:29;31.45;;;14.68;;
15356;SDS011;7778;48.792;9.260;2024-03-07T00:14:15;28.92;;;14.85;;
15356;SDS011;7778;48.792;9.260;2024-03-07T00:17:00;32.45;;;15.02;;
15356;SDS011;7778;48.792;9.260;2024-03-07T00:19:48;31.58;;;13.63;;
15356;SDS011;7778;48.792;9.260;2024-03-07T00:22:33;23.77;;;13.43;;
15356;SDS011;7778;48.792;9.260;2024-03-07T00:25:19;29.10;;;14.48;;
15356;SDS011;7778;48.792;9.260;2024-03-07T00:28:06;26.98;;;12.90;;
15356;SDS011;7778;48.792;9.260;2024-03-07T00:30:51;28.25;;;14.10;;
15356;SDS011;7778;48.792;9.260;2024-03-07T00:33:37;29.27;;;14.23;;
15356;SDS011;7778;48.792;9.260;2024-03-07T00:36:23;33.92;;;14.85;;
15356;SDS011;7778;48.792;9.260;2024-03-07T00:39:09;33.63;;;13.55;;
15356;SDS011;7778;48.792;9.260;2024-03-07T00:41:55;28.85;;;13.45;;
15356;SDS011;7778;48.792;9.260;2024-03-07T00:44:40;28.05;;;13.52;;
15356;SDS011;7778;48.792;9.260;2024-03-07T00:47:26;26.30;;;13.20;;
15356;SDS011;7778;48.792;9.260;2024-03-07T00:50:12;22.38;;;12.38;;
15356;SDS011;7778;48.792;9.260;2024-03-07T00:52:59;28.80;;;13.93;;
15356;SDS011;7778;48.792;9.260;2024-03-07T00:55:45;28.70;;;13.43;;
15356;SDS011;7778;48.792;9.260;2024-03-07T00:58:30;27.27;;;12.77;;
15356;SDS011;7778;48.792;9.260;2024-03-07T01:01:16;26.40;;;14.07;;
15356;SDS011;7778;48.792;9.260;2024-03-07T01:04:02;26.95;;;12.80;;
15356;SDS011;7778;48.792;9.260;2024-03-07T01:06:48;26.35;;;13.73;;
15356;SDS011;7778;48.792;9.260;2024-03-07T01:09:36;26.65;;;14.00;;
15356;SDS011;7778;48.792;9.260;2024-03-07T01:12:22;27.17;;;14.02;;
15356;SDS011;7778;48.792;9.260;2024-03-07T01:15:14;31.75;;;15.40;;
15356;SDS011;7778;48.792;9.260;2024-03-07T01:17:59;35.60;;;15.07;;
15356;SDS011;7778;48.792;9.260;2024-03-07T01:20:46;29.35;;;15.27;;
15356;SDS011;7778;48.792;9.260;2024-03-07T01:23:31;29.70;;;14.73;;
15356;SDS011;7778;48.792;9.260;2024-03-07T01:26:18;30.35;;;14.70;;
15356;SDS011;7778;48.792;9.260;2024-03-07T01:29:04;29.23;;;14.82;;
15356;SDS011;7778;48.792;9.260;2024-03-07T01:31:50;31.77;;;14.25;;
15356;SDS011;7778;48.792;9.260;2024-03-07T01:34:36;32.80;;;15.50;;
15356;SDS011;7778;48.792;9.260;2024-03-07T01:37:22;38.78;;;16.23;;
15356;SDS011;7778;48.792;9.260;2024-03-07T01:40:07;28.40;;;13.90;;
15356;SDS011;7778;48.792;9.260;2024-03-07T01:42:56;32.38;;;15.68;;
15356;SDS011;7778;48.792;9.260;2024-03-07T01:45:42;27.75;;;14.60;;
15356;SDS011;7778;48.792;9.260;2024-03-07T01:48:28;34.17;;;16.27;;
15356;SDS011;7778;48.792;9.260;2024-03-07T01:51:15;26.50;;;13.80;;
15356;SDS011;7778;48.792;9.260;2024-03-07T01:54:01;32.55;;;13.70;;
15356;SDS011;7778;48.792;9.260;2024-03-07T01:56:48;29.13;;;14.02;;
15356;SDS011;7778;48.792;9.260;2024-03-07T01:59:35;26.88;;;13.30;;
15356;SDS011;7778;48.792;9.260;2024-03-07T02:02:21;27.33;;;13.15;;
15356;SDS011;7778;48.792;9.260;2024-03-07T02:05:07;33.13;;;15.35;;
15356;SDS011;7778;48.792;9.260;2024-03-07T02:07:54;28.58;;;13.48;;
15356;SDS011;7778;48.792;9.260;2024-03-07T02:10:39;26.50;;;13.98;;
15356;SDS011;7778;48.792;9.260;2024-03-07T02:13:26;26.98;;;13.18;;
15356;SDS011;7778;48.792;9.260;2024-03-07T02:16:13;27.15;;;12.90;;
15356;SDS011;7778;48.792;9.260;2024-03-07T02:18:59;28.00;;;13.20;;
15356;SDS011;7778;48.792;9.260;2024-03-07T02:21:46;27.13;;;14.25;;
15356;SDS011;7778;48.792;9.260;2024-03-07T02:24:32;30.75;;;14.40;;
15356;SDS011;7778;48.792;9.260;2024-03-07T02:27:17;28.88;;;13.95;;
15356;SDS011;7778;48.792;9.260;2024-03-07T02:30:03;28.98;;;13.48;;
15356;SDS011;7778;48.792;9.260;2024-03-07T02:32:52;25.73;;;12.63;;
15356;SDS011;7778;48.792;9.260;2024-03-07T02:35:38;37.03;;;16.52;;
15356;SDS011;7778;48.792;9.260;2024-03-07T02:38:25;31.75;;;14.95;;
15356;SDS011;7778;48.792;9.260;2024-03-07T02:41:11;30.92;;;15.00;;
15356;SDS011;7778;48.792;9.260;2024-03-07T02:43:56;26.70;;;13.95;;
15356;SDS011;7778;48.792;9.260;2024-03-07T02:46:42;35.15;;;14.40;;
15356;SDS011;7778;48.792;9.260;2024-03-07T02:49:28;31.50;;;15.02;;
15356;SDS011;7778;48.792;9.260;2024-03-07T02:52:13;34.65;;;14.38;;
15356;SDS011;7778;48.792;9.260;2024-03-07T02:55:00;32.55;;;15.60;;
15356;SDS011;7778;48.792;9.260;2024-03-07T02:57:46;33.88;;;15.55;;
15356;SDS011;7778;48.792;9.260;2024-03-07T03:00:32;32.05;;;15.50;;
15356;SDS011;7778;48.792;9.260;2024-03-07T03:03:18;34.90;;;17.08;;
15356;SDS011;7778;48.792;9.260;2024-03-07T03:06:03;36.03;;;16.42;;
15356;SDS011;7778;48.792;9.260;2024-03-07T03:08:49;33.30;;;15.45;;
15356;SDS011;7778;48.792;9.260;2024-03-07T03:11:39;32.17;;;15.40;;
15356;SDS011;7778;48.792;9.260;2024-03-07T03:14:24;31.63;;;15.05;;
15356;SDS011;7778;48.792;9.260;2024-03-07T03:17:10;29.92;;;16.10;;
15356;SDS011;7778;48.792;9.260;2024-03-07T03:19:55;37.00;;;17.80;;
15356;SDS011;7778;48.792;9.260;2024-03-07T03:22:41;34.72;;;16.40;;
15356;SDS011;7778;48.792;9.260;2024-03-07T03:25:27;36.75;;;16.55;;
15356;SDS011;7778;48.792;9.260;2024-03-07T03:28:14;36.97;;;16.73;;
15356;SDS011;7778;48.792;9.260;2024-03-07T03:31:00;33.80;;;16.42;;
15356;SDS011;7778;48.792;9.260;2024-03-07T03:33:46;38.78;;;17.58;;
15356;SDS011;7778;48.792;9.260;2024-03-07T03:36:32;32.17;;;16.17;;
15356;SDS011;7778;48.792;9.260;2024-03-07T03:39:17;42.30;;;18.80;;
15356;SDS011;7778;48.792;9.260;2024-03-07T03:42:04;34.30;;;16.45;;
15356;SDS011;7778;48.792;9.260;2024-03-07T03:44:52;30.75;;;15.77;;
15356;SDS011;7778;48.792;9.260;2024-03-07T03:47:38;33.22;;;15.32;;
15356;SDS011;7778;48.792;9.260;2024-03-07T03:50:23;33.28;;;16.13;;
15356;SDS011;7778;48.792;9.260;2024-03-07T03:53:09;37.45;;;17.23;;
15356;SDS011;7778;48.792;9.260;2024-03-07T03:55:55;31.38;;;16.73;;
15356;SDS011;7778;48.792;9.260;2024-03-07T03:58:41;34.03;;;15.15;;
15356;SDS011;7778;48.792;9.260;2024-03-07T04:01:28;41.67;;;16.40;;
15356;SDS011;7778;48.792;9.260;2024-03-07T04:04:13;38.67;;;16.83;;
15356;SDS011;7778;48.792;9.260;2024-03-07T04:06:59;37.38;;;17.17;;
15356;SDS011;7778;48.792;9.260;2024-03-07T04:09:45;31.92;;;16.70;;
15356;SDS011;7778;48.792;9.260;2024-03-07T04:12:30;36.72;;;16.90;;
15356;SDS011;7778;48.792;9.260;2024-03-07T04:15:16;49.63;;;19.38;;
15356;SDS011;7778;48.792;9.260;2024-03-07T04:18:04;37.40;;;18.88;;
15356;SDS011;7778;48.792;9.260;2024-03-07T04:20:49;34.22;;;16.00;;
15356;SDS011;7778;48.792;9.260;2024-03-07T04:23:35;34.88;;;14.13;;
15356;SDS011;7778;48.792;9.260;2024-03-07T04:26:22;32.03;;;15.68;;
15356;SDS011;7778;48.792;9.260;2024-03-07T04:29:09;31.40;;;15.80;;
15356;SDS011;7778;48.792;9.260;2024-03-07T04:31:55;35.50;;;15.27;;
15356;SDS011;7778;48.792;9.260;2024-03-07T04:34:42;29.38;;;14.68;;
15356;SDS011;7778;48.792;9.260;2024-03-07T04:37:28;40.70;;;17.25;;
15356;SDS011;7778;48.792;9.260;2024-03-07T04:40:14;36.67;;;17.15;;
15356;SDS011;7778;48.792;9.260;2024-03-07T04:43:00;32.25;;;15.95;;
15356;SDS011;7778;48.792;9.260;2024-03-07T04:45:46;45.05;;;18.73;;
15356;SDS011;7778;48.792;9.260;2024-03-07T04:48:31;31.45;;;16.92;;
15356;SDS011;7778;48.792;9.260;2024-03-07T04:51:18;37.28;;;17.50;;
15356;SDS011;7778;48.792;9.260;2024-03-07T04:54:04;35.83;;;16.75;;
15356;SDS011;7778;48.792;9.260;2024-03-07T04:56:50;35.28;;;16.50;;
15356;SDS011;7778;48.792;9.260;2024-03-07T04:59:37;43.63;;;18.92;;
15356;SDS011;7778;48.792;9.260;2024-03-07T05:02:22;38.28;;;16.98;;
15356;SDS011;7778;48.792;9.260;2024-03-07T05:05:09;32.22;;;14.95;;
15356;SDS011;7778;48.792;9.260;2024-03-07T05:07:56;38.75;;;17.77;;
15356;SDS011;7778;48.792;9.260;2024-03-07T05:10:42;36.17;;;15.95;;
15356;SDS011;7778;48.792;9.260;2024-03-07T05:13:28;37.58;;;17.77;;
15356;SDS011;7778;48.792;9.260;2024-03-07T05:16:15;37.65;;;17.02;;
15356;SDS011;7778;48.792;9.260;2024-03-07T05:19:01;40.25;;;18.48;;
15356;SDS011;7778;48.792;9.260;2024-03-07T05:21:48;32.60;;;15.40;;
15356;SDS011;7778;48.792;9.260;2024-03-07T05:24:35;37.80;;;17.60;;
15356;SDS011;7778;48.792;9.260;2024-03-07T05:27:21;36.17;;;16.75;;
15356;SDS011;7778;48.792;9.260;2024-03-07T05:30:07;36.50;;;16.75;;
15356;SDS011;7778;48.792;9.260;2024-03-07T05:32:55;41.33;;;17.00;;
15356;SDS011;7778;48.792;9.260;2024-03-07T05:35:42;35.78;;;17.17;;
15356;SDS011;7778;48.792;9.260;2024-03-07T05:38:27;39.05;;;19.35;;
15356;SDS011;7778;48.792;9.260;2024-03-07T05:41:14;39.80;;;18.50;;
15356;SDS011;7778;48.792;9.260;2024-03-07T05:44:00;46.85;;;19.10;;
15356;SDS011;7778;48.792;9.260;2024-03-07T05:46:45;44.90;;;18.83;;
15356;SDS011;7778;48.792;9.260;2024-03-07T05:49:32;37.78;;;17.67;;
15356;SDS011;7778;48.792;9.260;2024-03-07T05:52:17;37.60;;;17.38;;
15356;SDS011;7778;48.792;9.260;2024-03-07T05:55:03;35.67;;;16.77;;
15356;SDS011;7778;48.792;9.260;2024-03-07T05:57:52;33.60;;;15.95;;
15356;SDS011;7778;48.792;9.260;2024-03-07T06:00:37;37.40;;;18.45;;
15356;SDS011;7778;48.792;9.260;2024-03-07T06:03:23;38.15;;;17.08;;
15356;SDS011;7778;48.792;9.260;2024-03-07T06:06:09;42.28;;;17.38;;
15356;SDS011;7778;48.792;9.260;2024-03-07T06:08:56;33.00;;;16.70;;
15356;SDS011;7778;48.792;9.260;2024-03-07T06:11:41;38.88;;;17.95;;
15356;SDS011;7778;48.792;9.260;2024-03-07T06:14:28;42.47;;;19.48;;
15356;SDS011;7778;48.792;9.260;2024-03-07T06:17:14;35.80;;;17.42;;
15356;SDS011;7778;48.792;9.260;2024-03-07T06:20:02;38.80;;;18.08;;
15356;SDS011;7778;48.792;9.260;2024-03-07T06:22:51;34.05;;;17.30;;
15356;SDS011;7778;48.792;9.260;2024-03-07T06:25:37;39.28;;;16.90;;
15356;SDS011;7778;48.792;9.260;2024-03-07T06:28:31;32.70;;;15.88;;
15356;SDS011;7778;48.792;9.260;2024-03-07T06:31:17;38.60;;;17.00;;
15356;SDS011;7778;48.792;9.260;2024-03-07T06:34:04;42.53;;;18.92;;
15356;SDS011;7778;48.792;9.260;2024-03-07T06:36:50;42.20;;;18.63;;
15356;SDS011;7778;48.792;9.260;2024-03-07T06:39:35;40.67;;;17.45;;
15356;SDS011;7778;48.792;9.260;2024-03-07T06:42:21;40.15;;;19.13;;
15356;SDS011;7778;48.792;9.260;2024-03-07T06:45:07;34.97;;;17.08;;
15356;SDS011;7778;48.792;9.260;2024-03-07T06:47:54;38.63;;;17.23;;
15356;SDS011;7778;48.792;9.260;2024-03-07T06:50:40;38.70;;;17.50;;
15356;SDS011;7778;48.792;9.260;2024-03-07T06:53:28;43.33;;;18.75;;
15356;SDS011;7778;48.792;9.260;2024-03-07T06:56:14;42.35;;;18.98;;
15356;SDS011;7778;48.792;9.260;2024-03-07T06:59:00;47.45;;;19.80;;
15356;SDS011;7778;48.792;9.260;2024-03-07T07:01:48;41.55;;;18.50;;
15356;SDS011;7778;48.792;9.260;2024-03-07T07:04:36;41.20;;;19.33;;
15356;SDS011;7778;48.792;9.260;2024-03-07T07:07:26;35.92;;;18.20;;
15356;SDS011;7778;48.792;9.260;2024-03-07T07:10:12;36.70;;;18.35;;
15356;SDS011;7778;48.792;9.260;2024-03-07T07:13:01;36.22;;;17.77;;
15356;SDS011;7778;48.792;9.260;2024-03-07T07:15:48;37.95;;;16.60;;
15356;SDS011;7778;48.792;9.260;2024-03-07T07:18:34;35.53;;;16.85;;
15356;SDS011;7778;48.792;9.260;2024-03-07T07:21:22;34.42;;;17.05;;
15356;SDS011;7778;48.792;9.260;2024-03-07T07:24:07;36.88;;;17.05;;
15356;SDS011;7778;48.792;9.260;2024-03-07T07:26:54;33.45;;;16.17;;
15356;SDS011;7778;48.792;9.260;2024-03-07T07:29:40;29.33;;;14.60;;
15356;SDS011;7778;48.792;9.260;2024-03-07T07:32:25;36.65;;;15.63;;
15356;SDS011;7778;48.792;9.260;2024-03-07T07:35:11;19.83;;;10.85;;
15356;SDS011;7778;48.792;9.260;2024-03-07T07:38:00;26.55;;;12.93;;
15356;SDS011;7778;48.792;9.260;2024-03-07T07:40:46;26.05;;;14.35;;
15356;SDS011;7778;48.792;9.260;2024-03-07T07:43:31;30.15;;;14.27;;
15356;SDS011;7778;48.792;9.260;2024-03-07T07:46:17;29.35;;;12.20;;
15356;SDS011;7778;48.792;9.260;2024-03-07T07:49:02;26.70;;;11.68;;
15356;SDS011;7778;48.792;9.260;2024-03-07T07:51:48;27.25;;;12.20;;
15356;SDS011;7778;48.792;9.260;2024-03-07T07:54:35;29.05;;;13.88;;
15356;SDS011;7778;48.792;9.260;2024-03-07T07:57:21;23.75;;;11.38;;
15356;SDS011;7778;48.792;9.260;2024-03-07T08:00:07;24.85;;;10.68;;
15356;SDS011;7778;48.792;9.260;2024-03-07T08:03:05;17.27;;;8.82;;
15356;SDS011;7778;48.792;9.260;2024-03-07T08:05:51;19.85;;;10.63;;
15356;SDS011;7778;48.792;9.260;2024-03-07T08:08:38;21.75;;;11.35;;
15356;SDS011;7778;48.792;9.260;2024-03-07T08:11:25;20.40;;;11.38;;
15356;SDS011;7778;48.792;9.260;2024-03-07T08:14:11;27.52;;;12.32;;
15356;SDS011;7778;48.792;9.260;2024-03-07T08:16:56;23.48;;;12.13;;
15356;SDS011;7778;48.792;9.260;2024-03-07T08:19:42;15.07;;;7.03;;
15356;SDS011;7778;48.792;9.260;2024-03-07T08:22:28;22.95;;;11.02;;
15356;SDS011;7778;48.792;9.260;2024-03-07T08:25:13;19.98;;;10.65;;
15356;SDS011;7778;48.792;9.260;2024-03-07T08:28:01;23.05;;;11.57;;
15356;SDS011;7778;48.792;9.260;2024-03-07T08:30:47;22.52;;;10.57;;
15356;SDS011;7778;48.792;9.260;2024-03-07T08:33:32;20.75;;;10.15;;
15356;SDS011;7778;48.792;9.260;2024-03-07T08:36:18;13.75;;;8.77;;
15356;SDS011;7778;48.792;9.260;2024-03-07T08:39:03;27.88;;;12.50;;
15356;SDS011;7778;48.792;9.260;2024-03-07T08:41:54;23.55;;;12.15;;
15356;SDS011;7778;48.792;9.260;2024-03-07T08:44:41;24.48;;;10.88;;
15356;SDS011;7778;48.792;9.260;2024-03-07T08:47:27;32.22;;;12.68;;
15356;SDS011;7778;48.792;9.260;2024-03-07T08:50:14;21.92;;;11.55;;
15356;SDS011;7778;48.792;9.260;2024-03-07T08:53:01;23.08;;;11.98;;
15356;SDS011;7778;48.792;9.260;2024-03-07T08:55:48;25.52;;;13.07;;
15356;SDS011;7778;48.792;9.260;2024-03-07T08:58:34;26.40;;;11.93;;
15356;SDS011;7778;48.792;9.260;2024-03-07T09:01:21;25.67;;;13.00;;
15356;SDS011;7778;48.792;9.260;2024-03-07T09:04:06;25.50;;;11.95;;
15356;SDS011;7778;48.792;9.260;2024-03-07T09:06:53;23.88;;;12.02;;
15356;SDS011;7778;48.792;9.260;2024-03-07T09:09:38;26.05;;;12.65;;
15356;SDS011;7778;48.792;9.260;2024-03-07T09:12:24;22.67;;;11.38;;
15356;SDS011;7778;48.792;9.260;2024-03-07T09:15:10;25.98;;;13.07;;
15356;SDS011;7778;48.792;9.260;2024-03-07T09:17:58;28.55;;;12.05;;
15356;SDS011;7778;48.792;9.260;2024-03-07T09:20:45;27.13;;;13.20;;
15356;SDS011;7778;48.792;9.260;2024-03-07T09:23:31;29.75;;;13.15;;
15356;SDS011;7778;48.792;9.260;2024-03-07T09:26:17;24.67;;;12.27;;
15356;SDS011;7778;48.792;9.260;2024-03-07T09:29:03;23.05;;;11.98;;
15356;SDS011;7778;48.792;9.260;2024-03-07T09:31:50;27.08;;;12.07;;
15356;SDS011;7778;48.792;9.260;2024-03-07T09:34:38;32.20;;;12.73;;
15356;SDS011;7778;48.792;9.260;2024-03-07T09:37:23;23.20;;;11.60;;
15356;SDS011;7778;48.792;9.260;2024-03-07T09:40:10;24.00;;;11.02;;
15356;SDS011;7778;48.792;9.260;2024-03-07T09:42:56;22.23;;;12.38;;
15356;SDS011;7778;48.792;9.260;2024-03-07T09:45:44;22.95;;;12.57;;
15356;SDS011;7778;48.792;9.260;2024-03-07T09:48:31;26.95;;;12.25;;
15356;SDS011;7778;48.792;9.260;2024-03-07T09:51:19;19.17;;;11.45;;
15356;SDS011;7778;48.792;9.260;2024-03-07T09:54:06;26.60;;;11.82;;
15356;SDS011;7778;48.792;9.260;2024-03-07T09:56:52;27.73;;;13.10;;
15356;SDS011;7778;48.792;9.260;2024-03-07T09:59:38;24.38;;;12.70;;
15356;SDS011;7778;48.792;9.260;2024-03-07T10:02:28;24.80;;;11.70;;
15356;SDS011;7778;48.792;9.260;2024-03-07T10:05:17;25.75;;;13.23;;
15356;SDS011;7778;48.792;9.260;2024-03-07T10:08:05;26.58;;;12.30;;
15356;SDS011;7778;48.792;9.260;2024-03-07T10:10:51;24.70;;;11.57;;
15356;SDS011;7778;48.792;9.260;2024-03-07T10:13:40;25.17;;;12.77;;
15356;SDS011;7778;48.792;9.260;2024-03-07T10:16:26;20.77;;;11.02;;
15356;SDS011;7778;48.792;9.260;2024-03-07T10:19:12;21.50;;;11.57;;
15356;SDS011;7778;48.792;9.260;2024-03-07T10:21:58;22.10;;;11.95;;
15356;SDS011;7778;48.792;9.260;2024-03-07T10:24:53;20.25;;;11.63;;
15356;SDS011;7778;48.792;9.260;2024-03-07T10:27:40;28.30;;;13.13;;
15356;SDS011;7778;48.792;9.260;2024-03-07T10:30:26;23.00;;;11.93;;
15356;SDS011;7778;48.792;9.260;2024-03-07T10:33:12;27.95;;;12.65;;
15356;SDS011;7778;48.792;9.260;2024-03-07T10:35:59;23.73;;;13.48;;
15356;SDS011;7778;48.792;9.260;2024-03-07T10:38:45;23.23;;;11.98;;
15356;SDS011;7778;48.792;9.260;2024-03-07T10:41:33;26.75;;;13.05;;
15356;SDS011;7778;48.792;9.260;2024-03-07T10:44:23;25.90;;;12.93;;
15356;SDS011;7778;48.792;9.260;2024-03-07T10:47:14;25.00;;;13.25;;
15356;SDS011;7778;48.792;9.260;2024-03-07T10:50:04;24.15;;;12.52;;
15356;SDS011;7778;48.792;9.260;2024-03-07T10:52:58;29.95;;;14.48;;
15356;SDS011;7778;48.792;9.260;2024-03-07T10:55:55;23.67;;;11.68;;
15356;SDS011;7778;48.792;9.260;2024-03-07T10:59:01;27.13;;;13.63;;
15356;SDS011;7778;48.792;9.260;2024-03-07T11:01:57;26.35;;;12.60;;
15356;SDS011;7778;48.792;9.260;2024-03-07T11:04:51;30.27;;;12.00;;
15356;SDS011;7778;48.792;9.260;2024-03-07T11:07:40;29.42;;;11.90;;
15356;SDS011;7778;48.792;9.260;2024-03-07T11:10:26;28.88;;;14.48;;
15356;SDS011;7778;48.792;9.260;2024-03-07T11:13:12;33.75;;;15.02;;
15356;SDS011;7778;48.792;9.260;2024-03-07T11:16:01;28.48;;;13.10;;
15356;SDS011;7778;48.792;9.260;2024-03-07T11:22:04;29.98;;;13.27;;
15356;SDS011;7778;48.792;9.260;2024-03-07T11:25:02;27.15;;;13.20;;
15356;SDS011;7778;48.792;9.260;2024-03-07T11:27:52;29.33;;;13.73;;
15356;SDS011;7778;48.792;9.260;2024-03-07T11:30:40;30.02;;;13.25;;
15356;SDS011;7778;48.792;9.260;2024-03-07T11:33:26;24.75;;;11.85;;
15356;SDS011;7778;48.792;9.260;2024-03-07T11:36:12;24.58;;;12.50;;
15356;SDS011;7778;48.792;9.260;2024-03-07T11:42:34;20.95;;;10.27;;
15356;SDS011;7778;48.792;9.260;2024-03-07T11:45:20;30.35;;;13.73;;
15356;SDS011;7778;48.792;9.260;2024-03-07T11:48:09;14.45;;;8.18;;
15356;SDS011;7778;48.792;9.260;2024-03-07T11:50:57;25.85;;;14.00;;
15356;SDS011;7778;48.792;9.260;2024-03-07T11:53:43;29.48;;;12.98;;
15356;SDS011;7778;48.792;9.260;2024-03-07T11:56:31;27.17;;;12.73;;
15356;SDS011;7778;48.792;9.260;2024-03-07T11:59:17;26.08;;;12.38;;
15356;SDS011;7778;48.792;9.260;2024-03-07T12:02:02;20.63;;;10.25;;
15356;SDS011;7778;48.792;9.260;2024-03-07T12:04:48;16.98;;;8.27;;
15356;SDS011;7778;48.792;9.260;2024-03-07T12:07:36;28.15;;;12.90;;
15356;SDS011;7778;48.792;9.260;2024-03-07T12:10:22;18.35;;;9.25;;
15356;SDS011;7778;48.792;9.260;2024-03-07T12:13:08;29.33;;;14.27;;
15356;SDS011;7778;48.792;9.260;2024-03-07T12:15:55;20.08;;;8.85;;
15356;SDS011;7778;48.792;9.260;2024-03-07T12:18:41;29.85;;;14.18;;
15356;SDS011;7778;48.792;9.260;2024-03-07T12:21:28;34.72;;;15.73;;
15356;SDS011;7778;48.792;9.260;2024-03-07T12:24:15;26.83;;;13.88;;
15356;SDS011;7778;48.792;9.260;2024-03-07T12:27:04;17.77;;;9.15;;
15356;SDS011;7778;48.792;9.260;2024-03-07T12:29:52;14.93;;;8.60;;
15356;SDS011;7778;48.792;9.260;2024-03-07T12:32:42;31.27;;;13.55;;
15356;SDS011;7778;48.792;9.260;2024-03-07T12:35:32;28.58;;;13.00;;
15356;SDS011;7778;48.792;9.260;2024-03-07T12:38:19;21.63;;;10.75;;
15356;SDS011;7778;48.792;9.260;2024-03-07T12:41:08;14.68;;;7.57;;
15356;SDS011;7778;48.792;9.260;2024-03-07T12:43:58;25.13;;;12.57;;
15356;SDS011;7778;48.792;9.260;2024-03-07T12:46:45;23.52;;;11.68;;
15356;SDS011;7778;48.792;9.260;2024-03-07T12:49:31;25.30;;;13.13;;
15356;SDS011;7778;48.792;9.260;2024-03-07T12:52:17;29.70;;;13.95;;
15356;SDS011;7778;48.792;9.260;2024-03-07T12:55:03;26.95;;;12.98;;
15356;SDS011;7778;48.792;9.260;2024-03-07T12:57:51;25.77;;;13.50;;
15356;SDS011;7778;48.792;9.260;2024-03-07T13:00:38;20.67;;;10.50;;
15356;SDS011;7778;48.792;9.260;2024-03-07T13:03:25;15.43;;;8.48;;
15356;SDS011;7778;48.792;9.260;2024-03-07T13:06:13;28.77;;;15.07;;
15356;SDS011;7778;48.792;9.260;2024-03-07T13:09:02;26.33;;;12.32;;
15356;SDS011;7778;48.792;9.260;2024-03-07T13:11:54;24.70;;;11.95;;
15356;SDS011;7778;48.792;9.260;2024-03-07T13:14:41;30.73;;;13.05;;
15356;SDS011;7778;48.792;9.260;2024-03-07T13:17:27;24.38;;;13.77;;
15356;SDS011;7778;48.792;9.260;2024-03-07T13:20:13;24.20;;;13.07;;
15356;SDS011;7778;48.792;9.260;2024-03-07T13:22:59;10.77;;;6.03;;
15356;SDS011;7778;48.792;9.260;2024-03-07T13:25:46;18.20;;;9.68;;
15356;SDS011;7778;48.792;9.260;2024-03-07T13:28:32;13.88;;;5.47;;
15356;SDS011;7778;48.792;9.260;2024-03-07T13:31:19;21.02;;;13.07;;
15356;SDS011;7778;48.792;9.260;2024-03-07T13:34:05;26.80;;;12.55;;
15356;SDS011;7778;48.792;9.260;2024-03-07T13:36:56;27.13;;;14.95;;
15356;SDS011;7778;48.792;9.260;2024-03-07T13:39:45;23.80;;;12.18;;
15356;SDS011;7778;48.792;9.260;2024-03-07T13:42:31;24.30;;;10.48;;
15356;SDS011;7778;48.792;9.260;2024-03-07T13:45:16;22.40;;;10.73;;
15356;SDS011;7778;48.792;9.260;2024-03-07T13:48:05;25.77;;;12.75;;
15356;SDS011;7778;48.792;9.260;2024-03-07T13:50:51;28.50;;;15.88;;
15356;SDS011;7778;48.792;9.260;2024-03-07T13:53:37;26.23;;;12.07;;
15356;SDS011;7778;48.792;9.260;2024-03-07T13:56:44;37.08;;;15.40;;
15356;SDS011;7778;48.792;9.260;2024-03-07T14:06:38;23.38;;;12.63;;
15356;SDS011;7778;48.792;9.260;2024-03-07T14:16:43;23.75;;;12.98;;
15356;SDS011;7778;48.792;9.260;2024-03-07T14:20:10;26.42;;;13.40;;
15356;SDS011;7778;48.792;9.260;2024-03-07T14:23:49;23.73;;;12.93;;
15356;SDS011;7778;48.792;9.260;2024-03-07T14:27:23;8.98;;;5.53;;
15356;SDS011;7778;48.792;9.260;2024-03-07T14:30:21;32.60;;;14.25;;
15356;SDS011;7778;48.792;9.260;2024-03-07T14:33:26;25.75;;;12.10;;
15356;SDS011;7778;48.792;9.260;2024-03-07T14:36:18;23.92;;;12.18;;
15356;SDS011;7778;48.792;9.260;2024-03-07T14:39:19;14.57;;;7.15;;
15356;SDS011;7778;48.792;9.260;2024-03-07T14:42:07;25.30;;;11.43;;
15356;SDS011;7778;48.792;9.260;2024-03-07T14:44:58;8.60;;;5.43;;
15356;SDS011;7778;48.792;9.260;2024-03-07T14:47:44;23.73;;;12.68;;
15356;SDS011;7778;48.792;9.260;2024-03-07T14:50:33;25.42;;;13.00;;
15356;SDS011;7778;48.792;9.260;2024-03-07T14:53:21;30.13;;;12.43;;
15356;SDS011;7778;48.792;9.260;2024-03-07T14:56:07;22.42;;;12.35;;
15356;SDS011;7778;48.792;9.260;2024-03-07T14:58:54;21.52;;;11.25;;
15356;SDS011;7778;48.792;9.260;2024-03-07T15:01:40;20.90;;;9.95;;
15356;SDS011;7778;48.792;9.260;2024-03-07T15:04:26;22.83;;;11.95;;
15356;SDS011;7778;48.792;9.260;2024-03-07T15:07:15;17.10;;;9.80;;
15356;SDS011;7778;48.792;9.260;2024-03-07T15:10:02;27.25;;;12.68;;
15356;SDS011;7778;48.792;9.260;2024-03-07T15:12:51;21.85;;;9.10;;
15356;SDS011;7778;48.792;9.260;2024-03-07T15:15:37;22.02;;;11.00;;
15356;SDS011;7778;48.792;9.260;2024-03-07T15:18:23;23.83;;;11.27;;
15356;SDS011;7778;48.792;9.260;2024-03-07T15:21:10;18.00;;;9.07;;
15356;SDS011;7778;48.792;9.260;2024-03-07T15:24:01;24.10;;;11.80;;
15356;SDS011;7778;48.792;9.260;2024-03-07T15:26:49;22.30;;;9.88;;
15356;SDS011;7778;48.792;9.260;2024-03-07T15:29:36;23.85;;;12.45;;
15356;SDS011;7778;48.792;9.260;2024-03-07T15:32:24;20.33;;;10.10;;
15356;SDS011;7778;48.792;9.260;2024-03-07T15:35:10;16.80;;;9.38;;
15356;SDS011;7778;48.792;9.260;2024-03-07T15:38:00;14.25;;;7.07;;
15356;SDS011;7778;48.792;9.260;2024-03-07T15:40:48;24.10;;;11.20;;
15356;SDS011;7778;48.792;9.260;2024-03-07T15:43:36;18.77;;;10.23;;
15356;SDS011;7778;48.792;9.260;2024-03-07T15:46:22;17.77;;;11.32;;
15356;SDS011;7778;48.792;9.260;2024-03-07T15:49:08;7.60;;;4.55;;
15356;SDS011;7778;48.792;9.260;2024-03-07T15:51:54;25.00;;;12.18;;
15356;SDS011;7778;48.792;9.260;2024-03-07T15:54:39;14.20;;;7.90;;
15356;SDS011;7778;48.792;9.260;2024-03-07T15:57:26;23.80;;;10.30;;
15356;SDS011;7778;48.792;9.260;2024-03-07T16:00:16;17.25;;;9.52;;
15356;SDS011;7778;48.792;9.260;2024-03-07T16:03:07;19.15;;;10.13;;
15356;SDS011;7778;48.792;9.260;2024-03-07T16:05:54;22.02;;;9.85;;
15356;SDS011;7778;48.792;9.260;2024-03-07T16:08:40;19.17;;;9.65;;
15356;SDS011;7778;48.792;9.260;2024-03-07T16:11:26;22.83;;;11.05;;
15356;SDS011;7778;48.792;9.260;2024-03-07T16:14:11;15.32;;;8.48;;
15356;SDS011;7778;48.792;9.260;2024-03-07T16:16:58;18.60;;;7.53;;
15356;SDS011;7778;48.792;9.260;2024-03-07T16:19:45;13.93;;;8.23;;
15356;SDS011;7778;48.792;9.260;2024-03-07T16:22:32;12.68;;;6.95;;
15356;SDS011;7778;48.792;9.260;2024-03-07T16:25:19;16.55;;;9.25;;
15356;SDS011;7778;48.792;9.260;2024-03-07T16:28:05;20.05;;;10.48;;
15356;SDS011;7778;48.792;9.260;2024-03-07T16:30:54;14.60;;;8.38;;
15356;SDS011;7778;48.792;9.260;2024-03-07T16:33:42;15.15;;;7.72;;
15356;SDS011;7778;48.792;9.260;2024-03-07T16:36:28;15.60;;;8.65;;
15356;SDS011;7778;48.792;9.260;2024-03-07T16:39:14;16.95;;;8.63;;
15356;SDS011;7778;48.792;9.260;2024-03-07T16:42:00;15.82;;;8.70;;
15356;SDS011;7778;48.792;9.260;2024-03-07T16:44:45;22.20;;;10.35;;
15356;SDS011;7778;48.792;9.260;2024-03-07T16:47:31;18.98;;;9.80;;
15356;SDS011;7778;48.792;9.260;2024-03-07T16:50:18;17.00;;;7.47;;
15356;SDS011;7778;48.792;9.260;2024-03-07T16:53:05;20.38;;;10.10;;
15356;SDS011;7778;48.792;9.260;2024-03-07T16:55:51;20.02;;;9.77;;